Time;durP1;ratioP1;P1;durP2;ratioP2;P2;SDS_P1;SDS_P2;PMS_P1;PMS_P2;Temp;Humidity;BMP_temperature;BMP_pressure;BME280_temperature;BME280_humidity;BME280_pressure;Samples;Min_cycle;Max_cycle;Signal;HPM_P1;HPM_P2
2024/01/20 00:00:03;;;;;;;16.40;6.10;;;;;;;-2.21;93.78;101133.91;105401;1254;71614;-59
2024/01/20 00:02:32;;;;;;;13.00;5.60;;;;;;;-2.20;93.98;101131.90;105418;1255;69202;-59
2024/01/20 00:05:01;;;;;;;11.30;5.20;;;;;;;-2.17;93.99;101125.80;105396;1259;69172;-59
2024/01/20 00:07:30;;;;;;;10.60;5.70;;;;;;;-2.16;94.07;101127.20;105411;1255;72590;-59
2024/01/20 00:09:58;;;;;;;14.00;6.20;;;;;;;-2.15;93.87;101121.76;105365;1255;83353;-59
2024/01/20 00:12:26;;;;;;;14.20;6.40;;;;;;;-2.12;93.88;101120.48;105437;1256;73775;-59
2024/01/20 00:14:55;;;;;;;10.70;6.00;;;;;;;-2.11;93.87;101120.14;105409;1259;69081;-59
2024/01/20 00:17:23;;;;;;;22.00;6.00;;;;;;;-2.13;93.64;101118.92;105380;1258;69164;-59
2024/01/20 00:19:55;;;;;;;10.30;4.70;;;;;;;-2.13;93.64;101115.83;105436;1255;72034;-59
2024/01/20 00:22:24;;;;;;;11.30;5.40;;;;;;;-2.13;93.52;101123.71;105382;1259;81917;-58
2024/01/20 00:24:52;;;;;;;16.40;6.00;;;;;;;-2.13;93.48;101128.34;105456;1254;73140;-59
2024/01/20 00:27:21;;;;;;;15.90;5.80;;;;;;;-2.12;93.39;101131.78;105392;1254;69122;-59
2024/01/20 00:29:49;;;;;;;13.60;5.60;;;;;;;-2.11;93.50;101134.02;105371;1259;69191;-59
2024/01/20 00:32:18;;;;;;;12.10;5.80;;;;;;;-2.10;93.37;101140.90;105346;1255;72431;-59
2024/01/20 00:34:46;;;;;;;12.00;5.50;;;;;;;-2.12;93.18;101147.36;105449;1259;81581;-59
2024/01/20 00:37:37;;;;;;;10.80;5.30;;;;;;;-2.12;93.12;101148.89;105392;1259;71773;-59
2024/01/20 00:40:07;;;;;;;11.70;5.60;;;;;;;-2.14;93.20;101150.37;105432;1256;69614;-59
2024/01/20 00:42:36;;;;;;;12.70;5.50;;;;;;;-2.17;92.94;101155.27;105421;1259;69150;-59
2024/01/20 00:45:05;;;;;;;15.40;6.60;;;;;;;-2.18;93.04;101155.23;105518;1254;70443;-59
2024/01/20 00:47:35;;;;;;;12.40;5.80;;;;;;;-2.20;93.01;101160.50;105402;1256;83266;-59
2024/01/20 00:50:07;;;;;;;13.10;5.50;;;;;;;-2.23;92.81;101163.15;105374;1256;72525;-59
2024/01/20 00:52:36;;;;;;;13.20;5.10;;;;;;;-2.25;92.99;101166.70;105405;1259;69408;-59
2024/01/20 00:55:05;;;;;;;21.50;7.60;;;;;;;-2.27;92.91;101169.92;105391;1256;69187;-59
2024/01/20 00:57:33;;;;;;;13.50;6.10;;;;;;;-2.27;92.66;101171.60;105410;1254;71931;-59
2024/01/20 01:00:07;;;;;;;13.30;5.80;;;;;;;-2.29;92.85;101168.65;105375;1258;81495;-59
2024/01/20 01:02:36;;;;;;;14.20;5.80;;;;;;;-2.29;92.87;101171.56;105347;1256;71311;-59
2024/01/20 01:05:06;;;;;;;12.10;5.70;;;;;;;-2.29;92.79;101177.90;105409;1254;69111;-59
2024/01/20 01:07:35;;;;;;;18.60;8.20;;;;;;;-2.29;92.72;101178.91;105409;1259;69113;-59
2024/01/20 01:10:05;;;;;;;11.60;5.30;;;;;;;-2.30;92.63;101183.35;105434;1259;71983;-59
2024/01/20 01:12:34;;;;;;;13.40;5.60;;;;;;;-2.31;92.63;101188.95;105388;1254;82045;-59
2024/01/20 01:15:03;;;;;;;13.20;5.70;;;;;;;-2.31;92.67;101188.44;105406;1255;73122;-59
2024/01/20 01:17:32;;;;;;;12.30;5.30;;;;;;;-2.31;92.70;101189.30;105370;1255;69123;-58
2024/01/20 01:20:01;;;;;;;16.00;6.20;;;;;;;-2.31;92.54;101187.58;105373;1257;69167;-59
2024/01/20 01:22:29;;;;;;;13.00;5.40;;;;;;;-2.31;92.58;101198.20;105356;1258;72722;-61
2024/01/20 01:24:58;;;;;;;14.10;5.70;;;;;;;-2.29;92.59;101191.59;105331;1259;81646;-61
2024/01/20 01:27:26;;;;;;;14.50;5.50;;;;;;;-2.29;92.57;101195.52;105336;1254;72271;-61
2024/01/20 01:29:54;;;;;;;16.20;6.20;;;;;;;-2.29;92.54;101198.44;105310;1259;69207;-61
2024/01/20 01:32:24;;;;;;;12.00;5.60;;;;;;;-2.28;92.52;101199.14;105330;1258;69155;-59
2024/01/20 01:34:52;;;;;;;11.40;4.30;;;;;;;-2.28;92.53;101191.27;105347;1255;73622;-59
2024/01/20 01:37:20;;;;;;;10.40;4.70;;;;;;;-2.27;92.46;101196.95;105317;1258;81692;-59
2024/01/20 01:39:49;;;;;;;15.10;5.20;;;;;;;-2.26;92.47;101198.67;105298;1254;72244;-59
2024/01/20 01:42:17;;;;;;;13.20;4.60;;;;;;;-2.24;92.50;101196.16;105305;1257;69184;-59
2024/01/20 01:44:45;;;;;;;12.70;4.90;;;;;;;-2.22;92.34;101200.31;105329;1259;69228;-59
2024/01/20 01:47:14;;;;;;;19.50;6.70;;;;;;;-2.22;92.36;101206.66;105362;1256;72210;-59
2024/01/20 01:49:42;;;;;;;22.30;6.60;;;;;;;-2.22;92.25;101210.09;105342;1259;81666;-58
2024/01/20 01:52:12;;;;;;;13.60;4.90;;;;;;;-2.24;92.12;101214.31;105354;1255;71705;-58
2024/01/20 01:54:40;;;;;;;12.80;4.80;;;;;;;-2.27;91.97;101210.13;105375;1259;69184;-58
2024/01/20 01:57:10;;;;;;;11.80;5.60;;;;;;;-2.29;91.93;101212.81;105444;1259;69277;-58
2024/01/20 01:59:38;;;;;;;14.20;4.70;;;;;;;-2.30;92.04;101207.64;105438;1260;71124;-58
2024/01/20 02:02:06;;;;;;;11.40;4.50;;;;;;;-2.31;91.88;101211.03;105371;1259;81379;-58
2024/01/20 02:04:35;;;;;;;11.70;5.00;;;;;;;-2.31;92.00;101209.83;105318;1259;72210;-58
2024/01/20 02:07:03;;;;;;;19.20;6.20;;;;;;;-2.32;91.98;101209.48;105413;1254;69040;-58
2024/01/20 02:09:32;;;;;;;9.10;4.60;;;;;;;-2.34;91.86;101209.92;105378;1255;69199;-58
2024/01/20 02:12:00;;;;;;;10.70;4.40;;;;;;;-2.36;91.85;101207.15;105442;1256;72633;-58
2024/01/20 02:14:42;;;;;;;16.20;5.30;;;;;;;-2.36;91.86;101205.08;105390;1259;81356;-58
2024/01/20 02:17:10;;;;;;;13.10;5.20;;;;;;;-2.36;91.91;101206.79;105364;1259;73033;-58
2024/01/20 02:19:40;;;;;;;11.20;5.20;;;;;;;-2.36;91.95;101207.80;105392;1256;69153;-59
2024/01/20 02:22:10;;;;;;;10.20;4.70;;;;;;;-2.37;91.86;101210.19;105436;1256;69843;-60
2024/01/20 02:24:39;;;;;;;12.30;4.40;;;;;;;-2.36;91.94;101209.52;105408;1259;71405;-60
2024/01/20 02:27:09;;;;;;;13.80;5.00;;;;;;;-2.35;91.90;101207.84;105379;1256;82285;-60
2024/01/20 02:29:39;;;;;;;9.20;4.30;;;;;;;-2.33;91.89;101203.45;105347;1256;71945;-60
2024/01/20 02:32:07;;;;;;;12.60;4.90;;;;;;;-2.33;91.77;101209.63;105392;1256;69067;-60
2024/01/20 02:34:37;;;;;;;11.90;5.20;;;;;;;-2.32;91.86;101204.85;105384;1259;69120;-60
2024/01/20 02:37:07;;;;;;;13.60;4.80;;;;;;;-2.33;91.70;101205.19;105377;1256;72704;-59
2024/01/20 02:39:35;;;;;;;12.60;4.80;;;;;;;-2.33;91.72;101208.60;105310;1256;81221;-61
2024/01/20 02:42:08;;;;;;;11.50;4.70;;;;;;;-2.33;91.61;101210.83;105355;1256;70985;-61
2024/01/20 02:44:38;;;;;;;17.70;5.30;;;;;;;-2.32;91.71;101218.55;105229;1256;69218;-61
2024/01/20 02:47:06;;;;;;;12.40;5.30;;;;;;;-2.29;91.79;101218.64;105293;1254;69122;-60
2024/01/20 02:49:34;;;;;;;12.50;4.80;;;;;;;-2.28;91.56;101211.27;105353;1255;70855;-60
2024/01/20 02:52:04;;;;;;;10.10;4.60;;;;;;;-2.29;91.62;101210.94;105561;1254;81657;-61
2024/01/20 02:54:32;;;;;;;7.30;3.80;;;;;;;-2.28;91.50;101217.80;105609;1256;71378;-61
2024/01/20 02:57:00;;;;;;;11.00;4.30;;;;;;;-2.29;91.41;101221.03;105564;1255;69081;-61
2024/01/20 02:59:29;;;;;;;9.10;4.20;;;;;;;-2.29;91.40;101221.20;105495;1255;69223;-61
2024/01/20 03:01:58;;;;;;;12.70;4.90;;;;;;;-2.28;91.35;101230.30;105569;1253;72616;-61
2024/01/20 03:04:26;;;;;;;11.70;4.70;;;;;;;-2.28;91.31;101223.98;105576;1253;81126;-61
2024/01/20 03:06:54;;;;;;;12.30;4.80;;;;;;;-2.27;91.36;101231.34;105550;1253;71534;-60
2024/01/20 03:09:23;;;;;;;12.10;4.00;;;;;;;-2.25;91.29;101231.09;105505;1253;69098;-61
2024/01/20 03:11:51;;;;;;;9.40;4.40;;;;;;;-2.21;91.33;101238.20;105582;1256;69637;-60
2024/01/20 03:14:19;;;;;;;9.90;4.30;;;;;;;-2.18;91.18;101230.23;105513;1253;71980;-60
2024/01/20 03:16:48;;;;;;;9.00;3.90;;;;;;;-2.19;91.15;101227.83;105562;1253;80336;-60
2024/01/20 03:19:16;;;;;;;9.50;4.60;;;;;;;-2.18;91.04;101233.32;105471;1254;71737;-60
2024/01/20 03:21:45;;;;;;;11.70;4.40;;;;;;;-2.15;91.08;101240.24;105503;1253;69083;-61
2024/01/20 03:24:17;;;;;;;13.30;4.20;;;;;;;-2.14;90.99;101240.28;105479;1255;69215;-61
2024/01/20 03:26:46;;;;;;;18.00;4.60;;;;;;;-2.12;90.80;101254.04;105546;1253;72012;-60
2024/01/20 03:29:15;;;;;;;10.90;4.10;;;;;;;-2.09;90.68;101253.77;105562;1255;82939;-61
2024/01/20 03:31:43;;;;;;;9.60;4.20;;;;;;;-2.09;90.67;101252.39;105546;1255;70356;-60
2024/01/20 03:34:11;;;;;;;11.60;5.20;;;;;;;-2.10;90.58;101254.95;105508;1254;69513;-61
2024/01/20 03:36:40;;;;;;;10.90;4.80;;;;;;;-2.08;90.60;101256.55;105547;1255;69800;-60
2024/01/20 03:39:08;;;;;;;12.90;4.30;;;;;;;-2.07;90.68;101252.29;105486;1254;72289;-61
2024/01/20 03:41:36;;;;;;;10.30;4.00;;;;;;;-2.09;90.49;101256.17;105537;1255;81673;-60
2024/01/20 03:44:04;;;;;;;11.30;4.50;;;;;;;-2.10;90.33;101264.86;105474;1253;73217;-61
2024/01/20 03:46:33;;;;;;;9.20;4.10;;;;;;;-2.11;90.28;101253.55;105517;1255;69176;-61
2024/01/20 03:49:01;;;;;;;10.30;4.50;;;;;;;-2.13;90.18;101263.23;105526;1256;69154;-60
2024/01/20 03:51:29;;;;;;;11.70;4.90;;;;;;;-2.16;90.18;101260.10;105493;1254;73485;-61
2024/01/20 03:53:58;;;;;;;10.50;4.20;;;;;;;-2.19;90.08;101267.54;105582;1257;81561;-61
2024/01/20 03:56:26;;;;;;;8.90;4.40;;;;;;;-2.22;90.00;101267.62;105568;1253;72812;-61
2024/01/20 03:58:54;;;;;;;9.50;4.00;;;;;;;-2.23;90.10;101273.05;105551;1255;69862;-61
2024/01/20 04:01:22;;;;;;;10.10;3.90;;;;;;;-2.27;89.95;101271.44;105547;1252;69286;-61
2024/01/20 04:03:51;;;;;;;8.10;3.90;;;;;;;-2.27;90.05;101266.13;105514;1256;71377;-61
2024/01/20 04:06:19;;;;;;;9.90;4.00;;;;;;;-2.26;90.03;101264.24;105537;1254;81505;-61
2024/01/20 04:08:48;;;;;;;10.80;4.30;;;;;;;-2.26;90.03;101268.34;105503;1256;72453;-61
2024/01/20 04:11:16;;;;;;;9.20;4.10;;;;;;;-2.28;90.01;101273.95;105491;1253;69060;-61
2024/01/20 04:13:45;;;;;;;10.00;4.70;;;;;;;-2.27;90.01;101275.20;105526;1255;69206;-60
2024/01/20 04:16:13;;;;;;;8.00;3.80;;;;;;;-2.27;90.17;101284.62;105536;1253;73401;-60
2024/01/20 04:18:41;;;;;;;11.80;4.20;;;;;;;-2.26;89.98;101283.94;105494;1255;81467;-60
2024/01/20 04:21:10;;;;;;;7.00;3.70;;;;;;;-2.27;89.99;101288.73;105454;1253;71652;-61
2024/01/20 04:23:38;;;;;;;11.40;4.30;;;;;;;-2.27;90.17;101294.02;105499;1255;69158;-60
2024/01/20 04:26:06;;;;;;;8.60;3.70;;;;;;;-2.25;90.17;101295.08;105522;1264;69509;-60
2024/01/20 04:28:34;;;;;;;9.20;4.70;;;;;;;-2.23;90.22;101298.92;105507;1255;72769;-61
2024/01/20 04:31:02;;;;;;;11.90;4.70;;;;;;;-2.20;90.33;101305.16;105471;1256;81936;-60
2024/01/20 04:33:30;;;;;;;14.00;4.60;;;;;;;-2.19;90.25;101312.05;105465;1252;70737;-60
2024/01/20 04:35:59;;;;;;;12.60;4.40;;;;;;;-2.17;90.31;101318.95;105552;1255;69083;-60
2024/01/20 04:38:27;;;;;;;9.80;4.10;;;;;;;-2.16;90.13;101321.75;105547;1255;69257;-60
2024/01/20 04:40:55;;;;;;;9.40;3.90;;;;;;;-2.16;90.10;101315.54;105494;1253;73270;-60
2024/01/20 04:43:23;;;;;;;9.00;3.90;;;;;;;-2.17;89.95;101320.17;105516;1255;81723;-60
2024/01/20 04:45:51;;;;;;;10.70;5.00;;;;;;;-2.16;89.99;101316.58;105495;1256;70959;-60
2024/01/20 04:48:20;;;;;;;11.10;4.60;;;;;;;-2.16;89.99;101316.05;105558;1254;69226;-60
2024/01/20 04:50:48;;;;;;;11.00;5.00;;;;;;;-2.18;90.00;101322.02;105481;1253;69169;-60
2024/01/20 04:53:16;;;;;;;11.10;4.60;;;;;;;-2.19;89.88;101313.73;105494;1256;72303;-60
2024/01/20 04:55:45;;;;;;;14.00;4.90;;;;;;;-2.21;89.88;101317.47;105499;1252;81512;-60
2024/01/20 04:58:13;;;;;;;11.50;4.60;;;;;;;-2.20;89.90;101321.42;105555;1253;72143;-60
2024/01/20 05:00:42;;;;;;;8.80;4.40;;;;;;;-2.21;89.87;101325.87;105628;1254;69220;-61
2024/01/20 05:03:11;;;;;;;11.80;4.80;;;;;;;-2.22;89.77;101331.80;105568;1255;69179;-60
2024/01/20 05:05:39;;;;;;;11.00;4.50;;;;;;;-2.24;89.79;101331.24;105611;1253;71882;-60
2024/01/20 05:08:07;;;;;;;9.40;4.20;;;;;;;-2.24;89.63;101329.72;105561;1255;81611;-61
2024/01/20 05:10:35;;;;;;;11.20;4.20;;;;;;;-2.25;89.74;101330.37;105475;1253;71659;-61
2024/01/20 05:13:04;;;;;;;11.80;4.60;;;;;;;-2.27;89.59;101333.22;105507;1255;69192;-61
2024/01/20 05:15:32;;;;;;;10.80;3.60;;;;;;;-2.29;89.48;101332.14;105505;1255;69195;-60
2024/01/20 05:18:01;;;;;;;10.90;4.50;;;;;;;-2.30;89.59;101334.32;105566;1253;72247;-60
2024/01/20 05:20:29;;;;;;;11.90;5.10;;;;;;;-2.31;89.59;101328.13;105545;1253;80245;-60
2024/01/20 05:22:58;;;;;;;12.70;4.30;;;;;;;-2.34;89.47;101328.38;105647;1253;73144;-60
2024/01/20 05:25:26;;;;;;;11.10;4.30;;;;;;;-2.34;89.50;101339.66;105491;1255;69113;-61
2024/01/20 05:27:54;;;;;;;10.90;4.10;;;;;;;-2.34;89.57;101340.36;105505;1256;69193;-60
2024/01/20 05:30:23;;;;;;;9.90;4.50;;;;;;;-2.35;89.57;101342.92;105521;1253;72141;-60
2024/01/20 05:32:52;;;;;;;11.20;4.10;;;;;;;-2.37;89.53;101346.63;105567;1253;81357;-62
2024/01/20 05:35:20;;;;;;;10.90;4.60;;;;;;;-2.37;89.56;101348.31;105474;1257;72782;-62
2024/01/20 05:37:48;;;;;;;11.00;4.20;;;;;;;-2.38;89.44;101347.94;105523;1257;69130;-64
2024/01/20 05:40:17;;;;;;;14.20;4.10;;;;;;;-2.41;89.35;101353.33;105552;1259;69190;-62
2024/01/20 05:42:45;;;;;;;9.80;4.50;;;;;;;-2.44;89.40;101349.46;105456;1253;71864;-61
2024/01/20 05:45:14;;;;;;;8.70;4.30;;;;;;;-2.43;89.54;101353.07;105480;1256;81510;-61
2024/01/20 05:47:43;;;;;;;8.90;4.10;;;;;;;-2.44;89.50;101355.78;105478;1253;72161;-61
2024/01/20 05:50:11;;;;;;;12.30;4.20;;;;;;;-2.45;89.43;101359.02;105462;1254;69904;-60
2024/01/20 05:52:39;;;;;;;11.10;4.70;;;;;;;-2.45;89.38;101359.55;105434;1254;69217;-60
2024/01/20 05:55:07;;;;;;;9.70;4.70;;;;;;;-2.44;89.58;101358.52;105478;1253;74196;-60
2024/01/20 05:57:35;;;;;;;9.40;4.40;;;;;;;-2.41;89.72;101361.19;105443;1258;81471;-60
2024/01/20 06:00:05;;;;;;;10.30;4.70;;;;;;;-2.40;89.58;101361.93;105413;1253;71917;-60
2024/01/20 06:02:33;;;;;;;9.30;4.40;;;;;;;-2.40;89.52;101372.54;105502;1253;69141;-60
2024/01/20 06:05:02;;;;;;;13.70;4.70;;;;;;;-2.37;89.71;101371.42;105521;1254;69168;-60
2024/01/20 06:07:30;;;;;;;8.00;4.10;;;;;;;-2.36;89.67;101370.77;105570;1253;72503;-60
2024/01/20 06:09:58;;;;;;;8.80;4.40;;;;;;;-2.37;89.48;101365.44;105445;1257;81198;-60
2024/01/20 06:12:27;;;;;;;9.40;4.50;;;;;;;-2.36;89.50;101372.30;105457;1256;73068;-60
2024/01/20 06:14:55;;;;;;;11.10;4.40;;;;;;;-2.38;89.46;101374.65;105592;1256;69134;-60
2024/01/20 06:17:23;;;;;;;8.80;4.30;;;;;;;-2.37;89.36;101377.75;105490;1256;69202;-60
2024/01/20 06:19:53;;;;;;;8.80;4.10;;;;;;;-2.38;89.41;101381.34;105501;1255;72335;-61
2024/01/20 06:22:21;;;;;;;9.40;4.60;;;;;;;-2.39;89.34;101379.57;105536;1255;81559;-60
2024/01/20 06:24:49;;;;;;;8.80;4.40;;;;;;;-2.41;89.18;101386.86;105503;1254;72708;-60
2024/01/20 06:27:17;;;;;;;6.70;4.30;;;;;;;-2.43;89.27;101390.92;105458;1254;69084;-60
2024/01/20 06:29:45;;;;;;;8.80;4.40;;;;;;;-2.43;89.36;101387.65;105457;1255;69207;-60
2024/01/20 06:32:14;;;;;;;11.40;4.70;;;;;;;-2.44;89.19;101393.95;105534;1256;72630;-61
2024/01/20 06:34:43;;;;;;;10.40;4.50;;;;;;;-2.44;89.18;101393.42;105571;1254;82976;-61
2024/01/20 06:37:13;;;;;;;9.50;4.20;;;;;;;-2.44;89.29;101399.95;105492;1256;72106;-61
2024/01/20 06:39:42;;;;;;;10.50;4.40;;;;;;;-2.45;89.20;101401.46;105585;1255;69205;-61
2024/01/20 06:42:11;;;;;;;14.10;5.10;;;;;;;-2.44;89.25;101397.20;105485;1254;69193;-61
2024/01/20 06:44:39;;;;;;;10.80;5.30;;;;;;;-2.44;89.30;101403.36;105572;1253;70996;-61
2024/01/20 06:47:07;;;;;;;11.60;4.70;;;;;;;-2.42;89.24;101401.55;105430;1256;80274;-61
2024/01/20 06:49:39;;;;;;;9.10;4.20;;;;;;;-2.42;89.16;101403.77;105426;1254;70420;-61
2024/01/20 06:52:08;;;;;;;13.20;5.00;;;;;;;-2.44;89.00;101404.05;105493;1257;69131;-62
2024/01/20 06:54:38;;;;;;;14.40;6.70;;;;;;;-2.44;89.00;101401.16;105502;1255;69183;-61
2024/01/20 06:57:06;;;;;;;11.60;5.90;;;;;;;-2.45;88.77;101399.23;105522;1255;71719;-61
2024/01/20 06:59:34;;;;;;;15.30;6.50;;;;;;;-2.48;88.81;101404.63;105488;1256;81425;-61
2024/01/20 07:02:02;;;;;;;10.60;5.80;;;;;;;-2.50;88.71;101409.86;105513;1252;70463;-61
2024/01/20 07:04:30;;;;;;;15.20;7.30;;;;;;;-2.52;88.79;101410.33;105551;1257;69092;-61
2024/01/20 07:06:59;;;;;;;14.50;7.40;;;;;;;-2.54;88.72;101419.33;105557;1253;69190;-61
2024/01/20 07:09:27;;;;;;;19.60;8.90;;;;;;;-2.56;88.61;101421.46;105622;1254;70909;-61
2024/01/20 07:11:57;;;;;;;11.80;5.30;;;;;;;-2.57;88.66;101427.25;105540;1255;81772;-61
2024/01/20 07:14:26;;;;;;;10.30;5.10;;;;;;;-2.58;88.67;101437.14;105645;1253;72306;-61
2024/01/20 07:16:54;;;;;;;10.80;5.50;;;;;;;-2.60;88.73;101433.50;105549;1255;69170;-61
2024/01/20 07:19:22;;;;;;;8.60;4.90;;;;;;;-2.61;88.61;101437.75;105540;1256;69091;-60
2024/01/20 07:21:50;;;;;;;9.80;4.80;;;;;;;-2.61;88.70;101439.11;105542;1258;72001;-60
2024/01/20 07:24:18;;;;;;;14.50;5.40;;;;;;;-2.62;88.67;101445.59;105526;1258;81404;-60
2024/01/20 07:26:47;;;;;;;13.00;5.10;;;;;;;-2.62;88.61;101448.14;105478;1257;72420;-60
2024/01/20 07:29:15;;;;;;;9.10;4.80;;;;;;;-2.62;88.70;101455.52;105631;1257;69200;-60
2024/01/20 07:31:43;;;;;;;9.00;4.80;;;;;;;-2.61;88.68;101450.58;105678;1257;69168;-61
2024/01/20 07:34:11;;;;;;;9.80;5.20;;;;;;;-2.60;88.65;101451.80;105548;1256;72356;-61
2024/01/20 07:36:40;;;;;;;11.90;5.10;;;;;;;-2.58;88.74;101455.14;105515;1256;81692;-60
2024/01/20 07:39:08;;;;;;;12.40;5.40;;;;;;;-2.56;88.66;101462.20;105542;1253;71744;-60
2024/01/20 07:41:36;;;;;;;12.20;4.90;;;;;;;-2.56;88.56;101463.23;105490;1259;69143;-61
2024/01/20 07:44:04;;;;;;;13.40;5.00;;;;;;;-2.53;88.74;101467.27;105533;1256;69122;-64
2024/01/20 07:46:32;;;;;;;12.00;5.00;;;;;;;-2.49;88.62;101476.83;105546;1256;71267;-63
2024/01/20 07:49:00;;;;;;;7.70;4.30;;;;;;;-2.46;88.52;101472.80;105531;1256;80545;-63
2024/01/20 07:51:29;;;;;;;14.20;5.80;;;;;;;-2.43;88.51;101476.81;105665;1257;71609;-63
2024/01/20 07:53:57;;;;;;;8.70;4.80;;;;;;;-2.40;88.38;101476.58;105560;1254;69052;-63
2024/01/20 07:56:26;;;;;;;9.00;4.30;;;;;;;-2.38;88.40;101475.27;105590;1256;69273;-63
2024/01/20 07:58:54;;;;;;;8.50;5.00;;;;;;;-2.37;88.37;101473.45;105628;1256;72637;-62
2024/01/20 08:01:23;;;;;;;9.90;4.70;;;;;;;-2.33;88.31;101471.34;105558;1256;82368;-63
2024/01/20 08:03:53;;;;;;;9.00;4.90;;;;;;;-2.30;88.38;101476.75;105480;1258;72767;-63
2024/01/20 08:06:21;;;;;;;9.40;4.90;;;;;;;-2.28;88.30;101477.01;105726;1257;69114;-63
2024/01/20 08:08:49;;;;;;;9.00;4.30;;;;;;;-2.23;88.33;101477.48;105670;1259;69157;-63
2024/01/20 08:11:18;;;;;;;10.00;5.20;;;;;;;-2.19;88.51;101481.21;105688;1259;73421;-65
2024/01/20 08:13:49;;;;;;;12.50;4.50;;;;;;;-2.16;88.51;101480.63;105497;1256;82017;-63
2024/01/20 08:16:17;;;;;;;7.70;4.30;;;;;;;-2.11;88.45;101486.77;105515;1258;71100;-64
2024/01/20 08:18:46;;;;;;;10.20;4.70;;;;;;;-2.06;88.42;101488.13;105499;1254;69184;-64
2024/01/20 08:21:14;;;;;;;9.30;4.60;;;;;;;-2.03;88.43;101481.56;105662;1257;69604;-61
2024/01/20 08:23:43;;;;;;;11.60;4.30;;;;;;;-2.00;88.39;101482.16;105652;1256;72032;-62
2024/01/20 08:26:11;;;;;;;10.40;4.60;;;;;;;-1.96;88.49;101483.13;105493;1258;82819;-61
2024/01/20 08:28:40;;;;;;;14.30;5.20;;;;;;;-1.95;88.44;101482.84;105480;1256;72241;-60
2024/01/20 08:31:08;;;;;;;9.50;5.00;;;;;;;-1.93;88.25;101484.79;105482;1253;69041;-62
2024/01/20 08:33:37;;;;;;;8.60;4.60;;;;;;;-1.91;88.28;101488.95;105668;1258;69402;-60
2024/01/20 08:36:05;;;;;;;8.30;4.50;;;;;;;-1.88;88.22;101480.30;105563;1256;71096;-61
2024/01/20 08:38:34;;;;;;;9.40;4.70;;;;;;;-1.83;88.32;101481.67;105696;1257;82063;-61
2024/01/20 08:41:09;;;;;;;7.70;4.40;;;;;;;-1.78;88.18;101486.96;105504;1258;70172;-61
2024/01/20 08:43:41;;;;;;;10.50;4.50;;;;;;;-1.74;88.12;101488.27;105606;1258;69104;-60
2024/01/20 08:46:11;;;;;;;11.70;4.60;;;;;;;-1.70;88.16;101499.89;105560;1254;69239;-61
2024/01/20 08:48:40;;;;;;;9.50;4.70;;;;;;;-1.67;87.92;101489.00;105666;1256;73430;-59
2024/01/20 08:51:09;;;;;;;11.20;4.90;;;;;;;-1.63;87.83;101498.73;105591;1258;81404;-60
2024/01/20 08:53:39;;;;;;;8.80;4.60;;;;;;;-1.56;87.92;101500.64;105632;1257;72963;-60
2024/01/20 08:56:08;;;;;;;7.60;4.50;;;;;;;-1.50;87.81;101502.36;105633;1257;69218;-60
2024/01/20 08:58:36;;;;;;;11.00;5.50;;;;;;;-1.43;87.64;101495.88;105742;1255;69096;-60
2024/01/20 09:01:06;;;;;;;10.30;4.10;;;;;;;-1.35;87.40;101493.36;105690;1257;72053;-60
2024/01/20 09:03:35;;;;;;;11.20;5.40;;;;;;;-1.25;87.54;101487.16;105570;1253;82075;-60
2024/01/20 09:06:03;;;;;;;9.60;4.60;;;;;;;-1.14;87.55;101485.23;105623;1257;72201;-60
2024/01/20 09:08:32;;;;;;;8.20;5.10;;;;;;;-1.03;87.59;101478.86;105714;1255;69259;-60
2024/01/20 09:11:00;;;;;;;11.40;5.10;;;;;;;-0.93;87.51;101490.61;105644;1255;69205;-60
2024/01/20 09:13:28;;;;;;;7.10;3.90;;;;;;;-0.83;87.25;101493.64;105710;1257;72702;-61
2024/01/20 09:15:56;;;;;;;9.00;4.50;;;;;;;-0.74;87.15;101487.53;105481;1257;81530;-61
2024/01/20 09:18:25;;;;;;;11.20;5.00;;;;;;;-0.66;86.94;101494.77;105461;1256;73903;-60
2024/01/20 09:20:54;;;;;;;12.30;4.30;;;;;;;-0.62;86.35;101485.80;105649;1260;69197;-61
2024/01/20 09:23:22;;;;;;;8.10;4.50;;;;;;;-0.57;86.35;101481.95;105552;1257;69074;-60
2024/01/20 09:25:50;;;;;;;6.90;4.70;;;;;;;-0.51;86.20;101494.48;105580;1259;73104;-61
2024/01/20 09:28:19;;;;;;;11.90;4.40;;;;;;;-0.44;86.08;101485.02;105464;1260;82123;-61
2024/01/20 09:30:47;;;;;;;10.10;4.60;;;;;;;-0.36;86.08;101488.31;105474;1253;72318;-61
2024/01/20 09:33:16;;;;;;;10.70;4.50;;;;;;;-0.29;85.95;101481.63;105573;1257;69169;-61
2024/01/20 09:35:45;;;;;;;7.50;4.40;;;;;;;-0.20;86.02;101479.44;105708;1257;69265;-61
2024/01/20 09:38:13;;;;;;;9.60;4.20;;;;;;;-0.11;85.80;101483.09;105625;1260;74338;-61
2024/01/20 09:40:41;;;;;;;7.30;4.20;;;;;;;-0.04;85.78;101479.48;105563;1255;82441;-60
2024/01/20 09:43:09;;;;;;;7.00;4.40;;;;;;;0.05;85.42;101483.97;105547;1257;70435;-60
2024/01/20 09:45:40;;;;;;;7.60;3.60;;;;;;;0.07;84.96;101491.43;105513;1255;69151;-60
2024/01/20 09:48:08;;;;;;;7.90;4.70;;;;;;;0.12;84.99;101487.43;105597;1266;69202;-60
2024/01/20 09:50:37;;;;;;;9.20;4.00;;;;;;;0.18;84.82;101479.98;105640;1254;71823;-60
2024/01/20 09:53:16;;;;;;;9.00;4.20;;;;;;;0.28;84.87;101483.99;105579;1258;81980;-61
2024/01/20 09:55:46;;;;;;;12.60;4.40;;;;;;;0.35;84.36;101481.23;105610;1252;71730;-60
2024/01/20 09:58:15;;;;;;;9.90;4.60;;;;;;;0.40;84.35;101483.06;105572;1258;70259;-59
2024/01/20 10:00:44;;;;;;;7.40;3.90;;;;;;;0.46;83.97;101486.11;105566;1254;69064;-61
2024/01/20 10:03:13;;;;;;;8.80;4.20;;;;;;;0.55;84.21;101487.35;105622;1260;73746;-61
2024/01/20 10:05:41;;;;;;;9.00;4.20;;;;;;;0.67;84.03;101493.10;105929;1259;81838;-61
2024/01/20 10:08:11;;;;;;;9.50;3.80;;;;;;;0.75;83.90;101487.42;105643;1257;72619;-61
2024/01/20 10:10:39;;;;;;;7.20;4.10;;;;;;;0.86;83.87;101492.80;105654;1257;69107;-60
2024/01/20 10:13:07;;;;;;;7.70;3.50;;;;;;;0.90;83.07;101492.54;105556;1257;69201;-58
2024/01/20 10:15:35;;;;;;;7.10;4.10;;;;;;;0.95;83.12;101499.49;105450;1258;72991;-60
2024/01/20 10:18:08;;;;;;;8.70;4.10;;;;;;;1.07;83.19;101495.27;105607;1258;81043;-59
2024/01/20 10:20:37;;;;;;;9.00;3.80;;;;;;;1.27;83.43;101494.45;105620;1256;71599;-60
2024/01/20 10:23:06;;;;;;;9.90;4.30;;;;;;;1.40;83.34;101491.23;105640;1254;69071;-60
2024/01/20 10:25:34;;;;;;;9.20;4.20;;;;;;;1.53;83.31;101496.48;105654;1255;69307;-59
2024/01/20 10:28:03;;;;;;;8.80;4.60;;;;;;;1.57;82.69;101498.60;105751;1257;71336;-60
2024/01/20 10:30:31;;;;;;;10.40;4.60;;;;;;;1.60;82.41;101502.60;105803;1257;82050;-60
2024/01/20 10:33:00;;;;;;;9.20;4.50;;;;;;;1.64;82.30;101497.34;105640;1255;72293;-60
2024/01/20 10:35:38;;;;;;;6.60;3.90;;;;;;;1.74;82.25;101503.90;105600;1258;69126;-61
2024/01/20 10:38:10;;;;;;;6.80;3.90;;;;;;;1.81;81.81;101511.59;105553;1258;69142;-61
2024/01/20 10:40:41;;;;;;;9.00;4.50;;;;;;;1.82;81.24;101512.30;105683;1257;73454;-62
2024/01/20 10:43:14;;;;;;;7.50;3.80;;;;;;;1.87;81.02;101514.10;105666;1254;82261;-59
2024/01/20 10:45:50;;;;;;;8.10;3.60;;;;;;;1.86;80.50;101523.05;105666;1256;70468;-60
2024/01/20 10:48:20;;;;;;;8.70;3.60;;;;;;;1.98;80.97;101517.38;105509;1257;69064;-59
2024/01/20 10:50:56;;;;;;;6.60;3.30;;;;;;;2.11;80.95;101520.52;105577;1254;69100;-62
2024/01/20 10:53:26;;;;;;;8.50;4.00;;;;;;;2.19;80.43;101523.05;105399;1257;313921;-62
2024/01/20 10:55:54;;;;;;;6.90;3.60;;;;;;;2.21;79.59;101521.70;105540;1257;80436;-62
2024/01/20 10:58:29;;;;;;;7.00;3.80;;;;;;;2.15;79.46;101520.08;105598;1257;73531;-61
2024/01/20 11:00:57;;;;;;;7.20;3.70;;;;;;;2.19;79.33;101527.55;105691;1256;69390;-61
2024/01/20 11:03:26;;;;;;;8.00;4.00;;;;;;;2.22;79.43;101510.51;105483;1258;69098;-62
2024/01/20 11:05:55;;;;;;;8.70;4.30;;;;;;;2.38;79.76;101508.69;105677;1258;73314;-63
2024/01/20 11:08:25;;;;;;;8.70;3.90;;;;;;;2.56;79.80;101517.73;105673;1252;83502;-62
2024/01/20 11:10:54;;;;;;;9.30;4.40;;;;;;;2.60;79.24;101512.61;105729;1258;73070;-62
2024/01/20 11:13:26;;;;;;;8.40;3.80;;;;;;;2.60;78.76;101511.39;105618;1256;69132;-63
2024/01/20 11:15:57;;;;;;;6.70;3.30;;;;;;;2.74;79.42;101502.96;105639;1255;69587;-63
2024/01/20 11:18:26;;;;;;;5.40;3.50;;;;;;;2.86;79.00;101502.40;105616;1258;72916;-63
2024/01/20 11:21:01;;;;;;;9.00;4.20;;;;;;;2.92;78.69;101502.13;105726;1255;83978;-62